sensor_id;sensor_type;location;lat;lon;timestamp;temperature;humidity
7708;DHT22;3896;48.758;8.888;2024-02-23T00:00:00;7.20;99.90
7708;DHT22;3896;48.758;8.888;2024-02-23T00:02:33;7.20;99.90
7708;DHT22;3896;48.758;8.888;2024-02-23T00:04:58;7.20;99.90
7708;DHT22;3896;48.758;8.888;2024-02-23T00:07:24;7.20;99.90
7708;DHT22;3896;48.758;8.888;2024-02-23T00:09:49;7.10;99.90
7708;DHT22;3896;48.758;8.888;2024-02-23T00:12:15;7.10;99.90
7708;DHT22;3896;48.758;8.888;2024-02-23T00:14:41;7.10;99.90
7708;DHT22;3896;48.758;8.888;2024-02-23T00:17:06;7.10;99.90
7708;DHT22;3896;48.758;8.888;2024-02-23T00:19:32;7.10;99.90
7708;DHT22;3896;48.758;8.888;2024-02-23T00:21:57;7.10;99.90
7708;DHT22;3896;48.758;8.888;2024-02-23T00:24:25;7.10;99.90
7708;DHT22;3896;48.758;8.888;2024-02-23T00:26:50;7.00;99.90
7708;DHT22;3896;48.758;8.888;2024-02-23T00:29:17;7.00;99.90
7708;DHT22;3896;48.758;8.888;2024-02-23T00:31:42;7.00;99.90
7708;DHT22;3896;48.758;8.888;2024-02-23T00:34:08;7.00;99.90
7708;DHT22;3896;48.758;8.888;2024-02-23T00:36:42;6.90;99.90
7708;DHT22;3896;48.758;8.888;2024-02-23T00:39:08;6.90;99.90
7708;DHT22;3896;48.758;8.888;2024-02-23T00:41:36;6.90;99.90
7708;DHT22;3896;48.758;8.888;2024-02-23T00:44:05;6.90;99.90
7708;DHT22;3896;48.758;8.888;2024-02-23T00:46:31;6.90;99.90
7708;DHT22;3896;48.758;8.888;2024-02-23T00:48:57;6.90;99.90
7708;DHT22;3896;48.758;8.888;2024-02-23T00:51:23;6.90;99.90
7708;DHT22;3896;48.758;8.888;2024-02-23T00:53:48;6.80;99.90
7708;DHT22;3896;48.758;8.888;2024-02-23T00:56:14;6.80;99.90
7708;DHT22;3896;48.758;8.888;2024-02-23T00:58:40;6.80;99.90
7708;DHT22;3896;48.758;8.888;2024-02-23T01:01:06;6.80;99.90
7708;DHT22;3896;48.758;8.888;2024-02-23T01:03:31;6.80;99.90
7708;DHT22;3896;48.758;8.888;2024-02-23T01:05:57;6.80;99.90
7708;DHT22;3896;48.758;8.888;2024-02-23T01:08:22;6.80;99.90
7708;DHT22;3896;48.758;8.888;2024-02-23T01:10:48;6.80;99.90
7708;DHT22;3896;48.758;8.888;2024-02-23T01:13:13;6.70;99.90
7708;DHT22;3896;48.758;8.888;2024-02-23T01:15:39;6.70;99.90
7708;DHT22;3896;48.758;8.888;2024-02-23T01:18:05;6.70;99.90
7708;DHT22;3896;48.758;8.888;2024-02-23T01:20:34;6.70;99.90
7708;DHT22;3896;48.758;8.888;2024-02-23T01:22:59;6.70;99.90
7708;DHT22;3896;48.758;8.888;2024-02-23T01:25:25;6.70;99.90
7708;DHT22;3896;48.758;8.888;2024-02-23T01:27:50;6.70;99.90
7708;DHT22;3896;48.758;8.888;2024-02-23T01:30:16;6.70;99.90
7708;DHT22;3896;48.758;8.888;2024-02-23T01:32:42;6.70;99.90
7708;DHT22;3896;48.758;8.888;2024-02-23T01:35:08;6.70;99.90
7708;DHT22;3896;48.758;8.888;2024-02-23T01:37:34;6.70;99.90
7708;DHT22;3896;48.758;8.888;2024-02-23T01:40:00;6.70;99.90
7708;DHT22;3896;48.758;8.888;2024-02-23T01:42:26;6.70;99.90
7708;DHT22;3896;48.758;8.888;2024-02-23T01:44:55;6.70;99.90
7708;DHT22;3896;48.758;8.888;2024-02-23T01:47:30;6.70;99.90
7708;DHT22;3896;48.758;8.888;2024-02-23T01:49:57;6.70;99.90
7708;DHT22;3896;48.758;8.888;2024-02-23T01:52:24;6.70;99.90
7708;DHT22;3896;48.758;8.888;2024-02-23T01:54:50;6.70;99.90
7708;DHT22;3896;48.758;8.888;2024-02-23T01:57:16;6.60;99.90
7708;DHT22;3896;48.758;8.888;2024-02-23T01:59:42;6.60;99.90
7708;DHT22;3896;48.758;8.888;2024-02-23T02:02:07;6.70;99.90
7708;DHT22;3896;48.758;8.888;2024-02-23T02:04:33;6.60;99.90
7708;DHT22;3896;48.758;8.888;2024-02-23T02:06:59;6.70;99.90
7708;DHT22;3896;48.758;8.888;2024-02-23T02:09:26;6.60;99.90
7708;DHT22;3896;48.758;8.888;2024-02-23T02:11:51;6.60;99.90
7708;DHT22;3896;48.758;8.888;2024-02-23T02:14:17;6.60;99.90
7708;DHT22;3896;48.758;8.888;2024-02-23T02:16:43;6.60;99.90
7708;DHT22;3896;48.758;8.888;2024-02-23T02:19:10;6.60;99.90
7708;DHT22;3896;48.758;8.888;2024-02-23T02:21:37;6.60;99.90
7708;DHT22;3896;48.758;8.888;2024-02-23T02:24:03;6.50;99.90
7708;DHT22;3896;48.758;8.888;2024-02-23T02:26:29;6.60;99.90
7708;DHT22;3896;48.758;8.888;2024-02-23T02:28:54;6.60;99.90
7708;DHT22;3896;48.758;8.888;2024-02-23T02:31:20;6.60;99.90
7708;DHT22;3896;48.758;8.888;2024-02-23T02:33:45;6.50;99.90
7708;DHT22;3896;48.758;8.888;2024-02-23T02:36:11;6.50;99.90
7708;DHT22;3896;48.758;8.888;2024-02-23T02:38:37;6.50;99.90
7708;DHT22;3896;48.758;8.888;2024-02-23T02:41:03;6.50;99.90
7708;DHT22;3896;48.758;8.888;2024-02-23T02:59:53;6.40;99.90
7708;DHT22;3896;48.758;8.888;2024-02-23T03:02:19;6.40;99.90
7708;DHT22;3896;48.758;8.888;2024-02-23T03:04:49;6.40;99.90
7708;DHT22;3896;48.758;8.888;2024-02-23T03:07:16;6.30;99.90
7708;DHT22;3896;48.758;8.888;2024-02-23T03:12:16;6.40;99.90
7708;DHT22;3896;48.758;8.888;2024-02-23T03:14:42;6.30;99.90
7708;DHT22;3896;48.758;8.888;2024-02-23T03:17:08;6.30;99.90
7708;DHT22;3896;48.758;8.888;2024-02-23T03:19:35;6.30;99.90
7708;DHT22;3896;48.758;8.888;2024-02-23T03:22:00;6.30;99.90
7708;DHT22;3896;48.758;8.888;2024-02-23T03:24:26;6.30;99.90
7708;DHT22;3896;48.758;8.888;2024-02-23T03:26:51;6.30;99.90
7708;DHT22;3896;48.758;8.888;2024-02-23T03:29:17;6.30;99.90
7708;DHT22;3896;48.758;8.888;2024-02-23T03:31:42;6.20;99.90
7708;DHT22;3896;48.758;8.888;2024-02-23T03:34:08;6.20;99.90
7708;DHT22;3896;48.758;8.888;2024-02-23T03:36:34;6.20;99.90
7708;DHT22;3896;48.758;8.888;2024-02-23T03:39:00;6.20;99.90
7708;DHT22;3896;48.758;8.888;2024-02-23T03:41:26;6.20;99.90
7708;DHT22;3896;48.758;8.888;2024-02-23T03:43:51;6.20;99.90
7708;DHT22;3896;48.758;8.888;2024-02-23T03:46:17;6.10;99.90
7708;DHT22;3896;48.758;8.888;2024-02-23T03:48:44;6.10;99.90
7708;DHT22;3896;48.758;8.888;2024-02-23T03:51:10;6.10;99.90
7708;DHT22;3896;48.758;8.888;2024-02-23T03:53:35;6.10;99.90
7708;DHT22;3896;48.758;8.888;2024-02-23T03:56:01;6.10;99.90
7708;DHT22;3896;48.758;8.888;2024-02-23T03:58:26;6.10;99.90
7708;DHT22;3896;48.758;8.888;2024-02-23T04:00:52;6.10;99.90
7708;DHT22;3896;48.758;8.888;2024-02-23T04:03:18;6.10;99.90
7708;DHT22;3896;48.758;8.888;2024-02-23T04:05:44;6.10;99.90
7708;DHT22;3896;48.758;8.888;2024-02-23T04:08:09;6.10;99.90
7708;DHT22;3896;48.758;8.888;2024-02-23T04:10:35;6.00;99.90
7708;DHT22;3896;48.758;8.888;2024-02-23T04:13:01;6.00;99.90
7708;DHT22;3896;48.758;8.888;2024-02-23T04:15:26;6.00;99.90
7708;DHT22;3896;48.758;8.888;2024-02-23T04:17:52;6.00;99.90
7708;DHT22;3896;48.758;8.888;2024-02-23T04:20:17;6.00;99.90
7708;DHT22;3896;48.758;8.888;2024-02-23T04:22:43;6.00;99.90
7708;DHT22;3896;48.758;8.888;2024-02-23T04:25:09;6.00;99.90
7708;DHT22;3896;48.758;8.888;2024-02-23T04:27:35;6.00;99.90
7708;DHT22;3896;48.758;8.888;2024-02-23T04:30:00;5.90;99.90
7708;DHT22;3896;48.758;8.888;2024-02-23T04:32:26;5.90;99.90
7708;DHT22;3896;48.758;8.888;2024-02-23T04:34:51;5.90;99.90
7708;DHT22;3896;48.758;8.888;2024-02-23T04:37:17;5.80;99.90
7708;DHT22;3896;48.758;8.888;2024-02-23T04:39:46;5.80;99.90
7708;DHT22;3896;48.758;8.888;2024-02-23T04:42:11;5.80;99.90
7708;DHT22;3896;48.758;8.888;2024-02-23T04:44:37;5.80;99.90
7708;DHT22;3896;48.758;8.888;2024-02-23T04:47:02;5.80;99.90
7708;DHT22;3896;48.758;8.888;2024-02-23T04:49:28;5.80;99.90
7708;DHT22;3896;48.758;8.888;2024-02-23T04:51:54;5.70;99.90
7708;DHT22;3896;48.758;8.888;2024-02-23T04:54:20;5.70;99.90
7708;DHT22;3896;48.758;8.888;2024-02-23T04:56:46;5.70;99.80
7708;DHT22;3896;48.758;8.888;2024-02-23T04:59:13;5.70;99.60
7708;DHT22;3896;48.758;8.888;2024-02-23T05:01:38;5.70;99.40
7708;DHT22;3896;48.758;8.888;2024-02-23T05:04:04;5.70;99.30
7708;DHT22;3896;48.758;8.888;2024-02-23T05:06:30;5.60;99.10
7708;DHT22;3896;48.758;8.888;2024-02-23T05:08:55;5.60;98.80
7708;DHT22;3896;48.758;8.888;2024-02-23T05:11:21;5.60;98.80
7708;DHT22;3896;48.758;8.888;2024-02-23T05:13:47;5.50;98.80
7708;DHT22;3896;48.758;8.888;2024-02-23T05:16:15;5.50;98.70
7708;DHT22;3896;48.758;8.888;2024-02-23T05:18:41;5.50;98.70
7708;DHT22;3896;48.758;8.888;2024-02-23T05:21:07;5.50;98.50
7708;DHT22;3896;48.758;8.888;2024-02-23T05:23:33;5.50;98.40
7708;DHT22;3896;48.758;8.888;2024-02-23T05:25:58;5.50;98.20
7708;DHT22;3896;48.758;8.888;2024-02-23T05:28:24;5.50;98.10
7708;DHT22;3896;48.758;8.888;2024-02-23T05:30:50;5.40;98.10
7708;DHT22;3896;48.758;8.888;2024-02-23T05:33:16;5.40;98.10
7708;DHT22;3896;48.758;8.888;2024-02-23T05:35:41;5.40;98.00
7708;DHT22;3896;48.758;8.888;2024-02-23T05:38:07;5.30;97.90
7708;DHT22;3896;48.758;8.888;2024-02-23T05:40:32;5.30;97.80
7708;DHT22;3896;48.758;8.888;2024-02-23T05:42:58;5.30;97.80
7708;DHT22;3896;48.758;8.888;2024-02-23T05:45:24;5.30;97.60
7708;DHT22;3896;48.758;8.888;2024-02-23T05:47:49;5.30;97.50
7708;DHT22;3896;48.758;8.888;2024-02-23T05:50:15;5.30;97.30
7708;DHT22;3896;48.758;8.888;2024-02-23T05:52:41;5.30;97.20
7708;DHT22;3896;48.758;8.888;2024-02-23T05:55:07;5.20;97.00
7708;DHT22;3896;48.758;8.888;2024-02-23T05:57:33;5.30;97.00
7708;DHT22;3896;48.758;8.888;2024-02-23T05:59:59;5.20;96.90
7708;DHT22;3896;48.758;8.888;2024-02-23T06:02:24;5.20;97.00
7708;DHT22;3896;48.758;8.888;2024-02-23T06:04:50;5.20;97.00
7708;DHT22;3896;48.758;8.888;2024-02-23T06:07:16;5.20;97.00
7708;DHT22;3896;48.758;8.888;2024-02-23T06:09:42;5.20;97.00
7708;DHT22;3896;48.758;8.888;2024-02-23T06:12:08;5.20;97.00
7708;DHT22;3896;48.758;8.888;2024-02-23T06:14:34;5.20;97.10
7708;DHT22;3896;48.758;8.888;2024-02-23T06:17:00;5.20;97.30
7708;DHT22;3896;48.758;8.888;2024-02-23T06:19:25;5.10;97.40
7708;DHT22;3896;48.758;8.888;2024-02-23T06:21:51;5.10;97.60
7708;DHT22;3896;48.758;8.888;2024-02-23T06:24:17;5.10;97.70
7708;DHT22;3896;48.758;8.888;2024-02-23T06:26:43;5.10;97.80
7708;DHT22;3896;48.758;8.888;2024-02-23T06:29:08;5.10;97.90
7708;DHT22;3896;48.758;8.888;2024-02-23T06:31:37;5.00;97.90
7708;DHT22;3896;48.758;8.888;2024-02-23T06:34:03;5.00;98.00
7708;DHT22;3896;48.758;8.888;2024-02-23T06:36:29;5.00;98.10
7708;DHT22;3896;48.758;8.888;2024-02-23T06:38:54;5.00;98.20
7708;DHT22;3896;48.758;8.888;2024-02-23T06:41:20;5.00;98.30
7708;DHT22;3896;48.758;8.888;2024-02-23T06:43:46;5.00;98.50
7708;DHT22;3896;48.758;8.888;2024-02-23T06:46:11;4.90;98.70
7708;DHT22;3896;48.758;8.888;2024-02-23T06:48:37;4.90;98.90
7708;DHT22;3896;48.758;8.888;2024-02-23T06:51:06;4.90;99.50
7708;DHT22;3896;48.758;8.888;2024-02-23T06:53:35;4.90;99.40
7708;DHT22;3896;48.758;8.888;2024-02-23T06:56:01;4.90;99.90
7708;DHT22;3896;48.758;8.888;2024-02-23T06:58:27;4.90;99.90
7708;DHT22;3896;48.758;8.888;2024-02-23T07:00:53;4.90;99.90
7708;DHT22;3896;48.758;8.888;2024-02-23T07:03:18;4.90;99.90
7708;DHT22;3896;48.758;8.888;2024-02-23T07:05:44;4.90;99.90
7708;DHT22;3896;48.758;8.888;2024-02-23T07:08:10;4.90;99.90
7708;DHT22;3896;48.758;8.888;2024-02-23T07:10:36;4.90;99.90
7708;DHT22;3896;48.758;8.888;2024-02-23T07:13:02;4.90;99.90
7708;DHT22;3896;48.758;8.888;2024-02-23T07:15:27;4.90;99.90
7708;DHT22;3896;48.758;8.888;2024-02-23T07:17:53;4.90;99.90
7708;DHT22;3896;48.758;8.888;2024-02-23T07:20:18;4.90;99.90
7708;DHT22;3896;48.758;8.888;2024-02-23T07:22:45;4.90;99.90
7708;DHT22;3896;48.758;8.888;2024-02-23T07:25:11;4.90;99.90
7708;DHT22;3896;48.758;8.888;2024-02-23T07:27:37;4.90;99.90
7708;DHT22;3896;48.758;8.888;2024-02-23T07:30:02;4.90;99.90
7708;DHT22;3896;48.758;8.888;2024-02-23T07:32:30;4.90;99.90
7708;DHT22;3896;48.758;8.888;2024-02-23T07:34:56;5.00;99.90
7708;DHT22;3896;48.758;8.888;2024-02-23T07:37:21;5.00;99.90
7708;DHT22;3896;48.758;8.888;2024-02-23T07:39:47;5.00;99.90
7708;DHT22;3896;48.758;8.888;2024-02-23T07:42:12;5.00;99.90
7708;DHT22;3896;48.758;8.888;2024-02-23T07:44:40;5.00;99.90
7708;DHT22;3896;48.758;8.888;2024-02-23T07:47:06;5.00;99.90
7708;DHT22;3896;48.758;8.888;2024-02-23T07:49:31;5.00;99.90
7708;DHT22;3896;48.758;8.888;2024-02-23T07:51:57;5.10;99.90
7708;DHT22;3896;48.758;8.888;2024-02-23T07:54:22;5.10;99.90
7708;DHT22;3896;48.758;8.888;2024-02-23T07:56:48;5.10;99.90
7708;DHT22;3896;48.758;8.888;2024-02-23T07:59:13;5.10;99.90
7708;DHT22;3896;48.758;8.888;2024-02-23T08:01:39;5.10;99.90
7708;DHT22;3896;48.758;8.888;2024-02-23T08:04:05;5.10;99.90
7708;DHT22;3896;48.758;8.888;2024-02-23T08:06:31;5.10;99.90
7708;DHT22;3896;48.758;8.888;2024-02-23T08:08:57;5.10;99.90
7708;DHT22;3896;48.758;8.888;2024-02-23T08:11:22;5.10;99.90
7708;DHT22;3896;48.758;8.888;2024-02-23T08:13:48;5.10;99.90
7708;DHT22;3896;48.758;8.888;2024-02-23T08:16:15;5.10;99.90
7708;DHT22;3896;48.758;8.888;2024-02-23T08:18:41;5.20;99.90
7708;DHT22;3896;48.758;8.888;2024-02-23T08:21:07;5.20;99.90
7708;DHT22;3896;48.758;8.888;2024-02-23T08:23:32;5.20;99.90
7708;DHT22;3896;48.758;8.888;2024-02-23T08:25:58;5.20;99.90
7708;DHT22;3896;48.758;8.888;2024-02-23T08:28:25;5.30;99.90
7708;DHT22;3896;48.758;8.888;2024-02-23T08:30:51;5.40;99.90
7708;DHT22;3896;48.758;8.888;2024-02-23T08:33:17;5.40;99.90
7708;DHT22;3896;48.758;8.888;2024-02-23T08:35:43;5.50;99.90
7708;DHT22;3896;48.758;8.888;2024-02-23T08:38:08;5.50;99.90
7708;DHT22;3896;48.758;8.888;2024-02-23T08:40:34;5.50;99.90
7708;DHT22;3896;48.758;8.888;2024-02-23T08:43:00;5.60;99.90
7708;DHT22;3896;48.758;8.888;2024-02-23T08:45:25;5.60;99.90
7708;DHT22;3896;48.758;8.888;2024-02-23T08:47:51;5.60;99.90
7708;DHT22;3896;48.758;8.888;2024-02-23T08:50:16;5.70;99.90
7708;DHT22;3896;48.758;8.888;2024-02-23T08:52:42;5.70;99.90
7708;DHT22;3896;48.758;8.888;2024-02-23T08:55:08;5.80;99.90
7708;DHT22;3896;48.758;8.888;2024-02-23T08:57:33;5.80;99.90
7708;DHT22;3896;48.758;8.888;2024-02-23T08:59:59;5.90;99.90
7708;DHT22;3896;48.758;8.888;2024-02-23T09:02:25;5.90;99.90
7708;DHT22;3896;48.758;8.888;2024-02-23T09:04:51;6.00;99.90
7708;DHT22;3896;48.758;8.888;2024-02-23T09:07:16;6.00;99.90
7708;DHT22;3896;48.758;8.888;2024-02-23T09:12:15;6.20;99.90
7708;DHT22;3896;48.758;8.888;2024-02-23T09:14:42;6.30;99.90
7708;DHT22;3896;48.758;8.888;2024-02-23T09:17:09;6.40;99.90
7708;DHT22;3896;48.758;8.888;2024-02-23T09:19:35;6.50;99.90
7708;DHT22;3896;48.758;8.888;2024-02-23T09:22:02;6.60;99.90
7708;DHT22;3896;48.758;8.888;2024-02-23T09:24:27;6.70;99.90
7708;DHT22;3896;48.758;8.888;2024-02-23T09:26:53;6.80;99.90
7708;DHT22;3896;48.758;8.888;2024-02-23T09:29:18;7.00;99.90
7708;DHT22;3896;48.758;8.888;2024-02-23T09:31:44;7.10;99.90
7708;DHT22;3896;48.758;8.888;2024-02-23T09:34:10;7.20;99.90
7708;DHT22;3896;48.758;8.888;2024-02-23T09:36:35;7.30;99.90
7708;DHT22;3896;48.758;8.888;2024-02-23T09:39:01;7.50;99.90
7708;DHT22;3896;48.758;8.888;2024-02-23T09:41:29;7.70;99.90
7708;DHT22;3896;48.758;8.888;2024-02-23T09:43:58;7.90;99.90
7708;DHT22;3896;48.758;8.888;2024-02-23T09:46:25;8.00;99.60
7708;DHT22;3896;48.758;8.888;2024-02-23T09:48:52;8.10;99.10
7708;DHT22;3896;48.758;8.888;2024-02-23T09:51:19;8.30;98.30
7708;DHT22;3896;48.758;8.888;2024-02-23T09:53:47;8.40;97.70
7708;DHT22;3896;48.758;8.888;2024-02-23T09:56:15;8.40;97.00
7708;DHT22;3896;48.758;8.888;2024-02-23T09:58:42;8.50;96.20
7708;DHT22;3896;48.758;8.888;2024-02-23T10:01:10;8.50;95.90
7708;DHT22;3896;48.758;8.888;2024-02-23T10:03:37;8.50;95.40
7708;DHT22;3896;48.758;8.888;2024-02-23T10:06:03;8.60;94.90
7708;DHT22;3896;48.758;8.888;2024-02-23T10:08:30;8.60;94.60
7708;DHT22;3896;48.758;8.888;2024-02-23T10:10:56;8.60;94.40
7708;DHT22;3896;48.758;8.888;2024-02-23T10:13:23;8.70;94.00
7708;DHT22;3896;48.758;8.888;2024-02-23T10:15:53;8.70;93.40
7708;DHT22;3896;48.758;8.888;2024-02-23T10:18:19;8.60;93.20
7708;DHT22;3896;48.758;8.888;2024-02-23T10:20:47;8.70;92.90
7708;DHT22;3896;48.758;8.888;2024-02-23T10:23:13;8.70;92.60
7708;DHT22;3896;48.758;8.888;2024-02-23T10:25:38;8.70;92.00
7708;DHT22;3896;48.758;8.888;2024-02-23T10:28:05;8.60;91.70
7708;DHT22;3896;48.758;8.888;2024-02-23T10:30:31;8.60;91.50
7708;DHT22;3896;48.758;8.888;2024-02-23T10:32:58;8.60;91.10
7708;DHT22;3896;48.758;8.888;2024-02-23T10:35:24;8.50;90.80
7708;DHT22;3896;48.758;8.888;2024-02-23T10:37:51;8.50;90.80
7708;DHT22;3896;48.758;8.888;2024-02-23T10:40:18;8.50;90.80
7708;DHT22;3896;48.758;8.888;2024-02-23T10:42:45;8.60;90.80
7708;DHT22;3896;48.758;8.888;2024-02-23T10:45:17;8.60;90.80
7708;DHT22;3896;48.758;8.888;2024-02-23T10:47:43;8.70;90.70
7708;DHT22;3896;48.758;8.888;2024-02-23T10:50:09;8.70;90.70
7708;DHT22;3896;48.758;8.888;2024-02-23T10:52:35;8.80;90.70
7708;DHT22;3896;48.758;8.888;2024-02-23T10:55:02;8.90;90.40
7708;DHT22;3896;48.758;8.888;2024-02-23T10:57:31;8.90;90.30
7708;DHT22;3896;48.758;8.888;2024-02-23T11:00:00;9.00;90.00
7708;DHT22;3896;48.758;8.888;2024-02-23T11:02:28;9.10;89.00
7708;DHT22;3896;48.758;8.888;2024-02-23T11:04:55;9.20;88.90
7708;DHT22;3896;48.758;8.888;2024-02-23T11:07:22;9.30;88.30
7708;DHT22;3896;48.758;8.888;2024-02-23T11:09:54;9.30;87.70
7708;DHT22;3896;48.758;8.888;2024-02-23T11:12:33;9.40;87.40
7708;DHT22;3896;48.758;8.888;2024-02-23T11:14:59;9.50;87.30
7708;DHT22;3896;48.758;8.888;2024-02-23T11:17:30;9.50;86.80
7708;DHT22;3896;48.758;8.888;2024-02-23T11:19:56;9.50;85.90
7708;DHT22;3896;48.758;8.888;2024-02-23T11:22:32;9.50;85.70
7708;DHT22;3896;48.758;8.888;2024-02-23T11:25:04;9.50;85.50
7708;DHT22;3896;48.758;8.888;2024-02-23T11:27:31;9.60;85.30
7708;DHT22;3896;48.758;8.888;2024-02-23T11:30:04;9.60;85.10
7708;DHT22;3896;48.758;8.888;2024-02-23T11:32:41;9.60;84.20
7708;DHT22;3896;48.758;8.888;2024-02-23T11:35:10;9.70;83.80
7708;DHT22;3896;48.758;8.888;2024-02-23T11:37:45;9.70;83.20
7708;DHT22;3896;48.758;8.888;2024-02-23T11:40:13;9.70;82.50
7708;DHT22;3896;48.758;8.888;2024-02-23T11:42:41;9.80;82.30
7708;DHT22;3896;48.758;8.888;2024-02-23T11:45:07;9.80;82.00
7708;DHT22;3896;48.758;8.888;2024-02-23T11:47:32;9.80;82.00
7708;DHT22;3896;48.758;8.888;2024-02-23T11:49:58;9.80;82.10
7708;DHT22;3896;48.758;8.888;2024-02-23T11:52:24;9.90;82.30
7708;DHT22;3896;48.758;8.888;2024-02-23T11:54:52;9.90;82.10
7708;DHT22;3896;48.758;8.888;2024-02-23T11:57:18;10.00;80.50
7708;DHT22;3896;48.758;8.888;2024-02-23T11:59:44;10.00;80.50
7708;DHT22;3896;48.758;8.888;2024-02-23T12:02:09;10.00;80.40
7708;DHT22;3896;48.758;8.888;2024-02-23T12:04:35;10.10;80.10
7708;DHT22;3896;48.758;8.888;2024-02-23T12:07:01;10.10;80.30
7708;DHT22;3896;48.758;8.888;2024-02-23T12:09:26;10.20;80.10
7708;DHT22;3896;48.758;8.888;2024-02-23T12:11:52;10.20;80.00
7708;DHT22;3896;48.758;8.888;2024-02-23T12:14:18;10.30;79.70
7708;DHT22;3896;48.758;8.888;2024-02-23T12:16:43;10.50;79.90
7708;DHT22;3896;48.758;8.888;2024-02-23T12:19:10;10.60;79.20
7708;DHT22;3896;48.758;8.888;2024-02-23T12:21:36;10.70;78.10
7708;DHT22;3896;48.758;8.888;2024-02-23T12:24:04;10.70;77.30
7708;DHT22;3896;48.758;8.888;2024-02-23T12:26:31;10.80;77.30
7708;DHT22;3896;48.758;8.888;2024-02-23T12:29:01;10.80;76.50
7708;DHT22;3896;48.758;8.888;2024-02-23T12:31:28;10.80;76.40
7708;DHT22;3896;48.758;8.888;2024-02-23T12:33:53;10.90;75.90
7708;DHT22;3896;48.758;8.888;2024-02-23T12:36:19;10.90;76.00
7708;DHT22;3896;48.758;8.888;2024-02-23T12:38:45;10.90;75.90
7708;DHT22;3896;48.758;8.888;2024-02-23T12:41:11;10.90;75.90
7708;DHT22;3896;48.758;8.888;2024-02-23T12:43:38;11.00;75.90
7708;DHT22;3896;48.758;8.888;2024-02-23T12:46:03;11.00;75.80
7708;DHT22;3896;48.758;8.888;2024-02-23T12:48:29;11.00;75.50
7708;DHT22;3896;48.758;8.888;2024-02-23T12:50:54;11.00;74.50
7708;DHT22;3896;48.758;8.888;2024-02-23T12:53:39;11.00;73.70
7708;DHT22;3896;48.758;8.888;2024-02-23T12:56:08;10.90;73.70
7708;DHT22;3896;48.758;8.888;2024-02-23T12:58:39;10.90;72.90
7708;DHT22;3896;48.758;8.888;2024-02-23T13:01:05;10.80;72.80
7708;DHT22;3896;48.758;8.888;2024-02-23T13:03:32;10.80;73.10
7708;DHT22;3896;48.758;8.888;2024-02-23T13:05:58;10.80;73.20
7708;DHT22;3896;48.758;8.888;2024-02-23T13:08:24;10.80;73.80
7708;DHT22;3896;48.758;8.888;2024-02-23T13:10:51;10.80;72.90
7708;DHT22;3896;48.758;8.888;2024-02-23T13:13:17;10.70;72.70
7708;DHT22;3896;48.758;8.888;2024-02-23T13:15:46;10.60;72.70
7708;DHT22;3896;48.758;8.888;2024-02-23T13:18:12;10.60;72.70
7708;DHT22;3896;48.758;8.888;2024-02-23T13:20:38;10.50;72.20
7708;DHT22;3896;48.758;8.888;2024-02-23T13:23:07;10.40;71.80
7708;DHT22;3896;48.758;8.888;2024-02-23T13:25:34;10.40;72.40
7708;DHT22;3896;48.758;8.888;2024-02-23T13:28:00;10.40;72.80
7708;DHT22;3896;48.758;8.888;2024-02-23T13:30:26;10.30;72.50
7708;DHT22;3896;48.758;8.888;2024-02-23T13:32:53;10.40;72.30
7708;DHT22;3896;48.758;8.888;2024-02-23T13:35:20;10.30;72.10
7708;DHT22;3896;48.758;8.888;2024-02-23T13:37:45;10.30;72.10
7708;DHT22;3896;48.758;8.888;2024-02-23T13:40:11;10.30;72.20
7708;DHT22;3896;48.758;8.888;2024-02-23T13:42:37;10.30;71.80
7708;DHT22;3896;48.758;8.888;2024-02-23T13:45:07;10.20;71.90
7708;DHT22;3896;48.758;8.888;2024-02-23T13:47:35;10.20;72.20
7708;DHT22;3896;48.758;8.888;2024-02-23T13:50:01;10.20;72.20
7708;DHT22;3896;48.758;8.888;2024-02-23T13:52:27;10.20;72.10
7708;DHT22;3896;48.758;8.888;2024-02-23T13:54:53;10.30;72.90
7708;DHT22;3896;48.758;8.888;2024-02-23T13:57:18;10.20;72.40
7708;DHT22;3896;48.758;8.888;2024-02-23T13:59:44;10.20;72.30
7708;DHT22;3896;48.758;8.888;2024-02-23T14:02:10;10.30;72.10
7708;DHT22;3896;48.758;8.888;2024-02-23T14:04:35;10.30;72.70
7708;DHT22;3896;48.758;8.888;2024-02-23T14:07:01;10.20;71.90
7708;DHT22;3896;48.758;8.888;2024-02-23T14:09:28;10.30;72.30
7708;DHT22;3896;48.758;8.888;2024-02-23T14:11:53;10.40;72.50
7708;DHT22;3896;48.758;8.888;2024-02-23T14:14:19;10.40;72.20
7708;DHT22;3896;48.758;8.888;2024-02-23T14:16:45;10.50;71.70
7708;DHT22;3896;48.758;8.888;2024-02-23T14:19:11;10.60;71.70
7708;DHT22;3896;48.758;8.888;2024-02-23T14:21:36;10.60;71.40
7708;DHT22;3896;48.758;8.888;2024-02-23T14:24:03;10.70;71.00
7708;DHT22;3896;48.758;8.888;2024-02-23T14:26:28;10.70;71.00
7708;DHT22;3896;48.758;8.888;2024-02-23T14:28:54;10.70;70.80
7708;DHT22;3896;48.758;8.888;2024-02-23T14:31:19;10.70;71.10
7708;DHT22;3896;48.758;8.888;2024-02-23T14:33:45;10.70;71.20
7708;DHT22;3896;48.758;8.888;2024-02-23T14:36:11;10.80;71.40
7708;DHT22;3896;48.758;8.888;2024-02-23T14:38:36;10.80;70.80
7708;DHT22;3896;48.758;8.888;2024-02-23T14:41:02;10.80;70.40
7708;DHT22;3896;48.758;8.888;2024-02-23T14:43:28;10.70;70.50
7708;DHT22;3896;48.758;8.888;2024-02-23T14:45:57;10.70;70.70
7708;DHT22;3896;48.758;8.888;2024-02-23T14:48:22;10.70;70.90
7708;DHT22;3896;48.758;8.888;2024-02-23T14:50:48;10.70;71.70
7708;DHT22;3896;48.758;8.888;2024-02-23T14:53:15;10.70;71.20
7708;DHT22;3896;48.758;8.888;2024-02-23T14:55:40;10.60;71.00
7708;DHT22;3896;48.758;8.888;2024-02-23T14:58:06;10.60;70.90
7708;DHT22;3896;48.758;8.888;2024-02-23T15:00:31;10.60;71.00
7708;DHT22;3896;48.758;8.888;2024-02-23T15:02:58;10.60;71.20
7708;DHT22;3896;48.758;8.888;2024-02-23T15:05:25;10.60;71.30
7708;DHT22;3896;48.758;8.888;2024-02-23T15:07:51;10.50;71.00
7708;DHT22;3896;48.758;8.888;2024-02-23T15:10:16;10.40;71.30
7708;DHT22;3896;48.758;8.888;2024-02-23T15:12:42;10.40;71.60
7708;DHT22;3896;48.758;8.888;2024-02-23T15:15:08;10.40;71.90
7708;DHT22;3896;48.758;8.888;2024-02-23T15:17:35;10.30;72.30
7708;DHT22;3896;48.758;8.888;2024-02-23T15:20:00;10.30;72.70
7708;DHT22;3896;48.758;8.888;2024-02-23T15:22:26;10.30;73.10
7708;DHT22;3896;48.758;8.888;2024-02-23T15:24:52;10.30;73.70
7708;DHT22;3896;48.758;8.888;2024-02-23T15:27:18;10.30;74.40
7708;DHT22;3896;48.758;8.888;2024-02-23T15:29:45;10.30;74.90
7708;DHT22;3896;48.758;8.888;2024-02-23T15:32:10;10.40;75.30
7708;DHT22;3896;48.758;8.888;2024-02-23T15:34:36;10.40;75.10
7708;DHT22;3896;48.758;8.888;2024-02-23T15:37:02;10.50;75.50
7708;DHT22;3896;48.758;8.888;2024-02-23T15:39:28;10.50;75.70
7708;DHT22;3896;48.758;8.888;2024-02-23T15:41:54;10.60;76.00
7708;DHT22;3896;48.758;8.888;2024-02-23T15:44:19;10.60;75.80
7708;DHT22;3896;48.758;8.888;2024-02-23T15:46:45;10.60;75.50
7708;DHT22;3896;48.758;8.888;2024-02-23T15:49:11;10.60;75.30
7708;DHT22;3896;48.758;8.888;2024-02-23T15:51:37;10.60;75.40
7708;DHT22;3896;48.758;8.888;2024-02-23T15:54:03;10.60;75.50
7708;DHT22;3896;48.758;8.888;2024-02-23T15:56:30;10.50;75.10
7708;DHT22;3896;48.758;8.888;2024-02-23T15:58:55;10.50;75.30
7708;DHT22;3896;48.758;8.888;2024-02-23T16:01:21;10.40;75.50
7708;DHT22;3896;48.758;8.888;2024-02-23T16:03:46;10.40;76.00
7708;DHT22;3896;48.758;8.888;2024-02-23T16:06:12;10.40;76.30
7708;DHT22;3896;48.758;8.888;2024-02-23T16:08:39;10.30;76.30
7708;DHT22;3896;48.758;8.888;2024-02-23T16:11:08;10.30;76.40
7708;DHT22;3896;48.758;8.888;2024-02-23T16:13:34;10.30;76.40
7708;DHT22;3896;48.758;8.888;2024-02-23T16:16:00;10.20;76.70
7708;DHT22;3896;48.758;8.888;2024-02-23T16:18:25;10.20;76.80
7708;DHT22;3896;48.758;8.888;2024-02-23T16:20:51;10.20;77.00
7708;DHT22;3896;48.758;8.888;2024-02-23T16:23:18;10.10;77.10
7708;DHT22;3896;48.758;8.888;2024-02-23T16:25:43;10.10;77.40